sensor_id;sensor_type;location;lat;lon;timestamp;P1;durP1;ratioP1;P2;durP2;ratioP2
8909;SDS011;4490;49.072;8.804;2022-12-07T00:00:54;16.63;;;11.70;;
8909;SDS011;4490;49.072;8.804;2022-12-07T00:03:30;19.73;;;11.53;;
8909;SDS011;4490;49.072;8.804;2022-12-07T00:05:59;15.87;;;11.57;;
8909;SDS011;4490;49.072;8.804;2022-12-07T00:08:26;17.70;;;11.13;;
8909;SDS011;4490;49.072;8.804;2022-12-07T00:10:51;16.70;;;10.93;;
8909;SDS011;4490;49.072;8.804;2022-12-07T00:13:17;15.97;;;10.53;;
8909;SDS011;4490;49.072;8.804;2022-12-07T00:15:43;17.80;;;11.73;;
8909;SDS011;4490;49.072;8.804;2022-12-07T00:18:09;14.43;;;10.07;;
8909;SDS011;4490;49.072;8.804;2022-12-07T00:20:34;14.70;;;11.07;;
8909;SDS011;4490;49.072;8.804;2022-12-07T00:23:00;14.07;;;11.17;;
8909;SDS011;4490;49.072;8.804;2022-12-07T00:25:26;15.97;;;10.73;;
8909;SDS011;4490;49.072;8.804;2022-12-07T00:27:52;16.63;;;10.90;;
8909;SDS011;4490;49.072;8.804;2022-12-07T00:30:21;13.80;;;10.47;;
8909;SDS011;4490;49.072;8.804;2022-12-07T00:32:48;16.40;;;11.07;;
8909;SDS011;4490;49.072;8.804;2022-12-07T00:35:14;15.73;;;10.77;;
8909;SDS011;4490;49.072;8.804;2022-12-07T00:37:39;15.73;;;11.37;;
8909;SDS011;4490;49.072;8.804;2022-12-07T00:40:05;16.93;;;11.07;;
8909;SDS011;4490;49.072;8.804;2022-12-07T00:42:31;16.80;;;11.23;;
8909;SDS011;4490;49.072;8.804;2022-12-07T00:44:57;15.57;;;11.27;;
8909;SDS011;4490;49.072;8.804;2022-12-07T00:47:22;16.87;;;11.37;;
8909;SDS011;4490;49.072;8.804;2022-12-07T00:49:48;15.83;;;11.57;;
8909;SDS011;4490;49.072;8.804;2022-12-07T00:52:13;15.27;;;11.10;;
8909;SDS011;4490;49.072;8.804;2022-12-07T00:54:39;15.57;;;10.97;;
8909;SDS011;4490;49.072;8.804;2022-12-07T00:57:05;16.33;;;11.63;;
8909;SDS011;4490;49.072;8.804;2022-12-07T00:59:30;15.80;;;12.17;;
8909;SDS011;4490;49.072;8.804;2022-12-07T01:01:56;17.87;;;12.03;;
8909;SDS011;4490;49.072;8.804;2022-12-07T01:04:22;19.20;;;12.07;;
8909;SDS011;4490;49.072;8.804;2022-12-07T01:06:48;16.37;;;11.27;;
8909;SDS011;4490;49.072;8.804;2022-12-07T01:09:13;18.87;;;12.00;;
8909;SDS011;4490;49.072;8.804;2022-12-07T01:11:39;15.70;;;11.73;;
8909;SDS011;4490;49.072;8.804;2022-12-07T01:14:05;15.37;;;10.90;;
8909;SDS011;4490;49.072;8.804;2022-12-07T01:16:31;16.30;;;11.07;;
8909;SDS011;4490;49.072;8.804;2022-12-07T01:18:58;14.27;;;10.97;;
8909;SDS011;4490;49.072;8.804;2022-12-07T01:21:26;16.10;;;11.20;;
8909;SDS011;4490;49.072;8.804;2022-12-07T01:23:53;15.00;;;11.67;;
8909;SDS011;4490;49.072;8.804;2022-12-07T01:26:20;17.23;;;11.80;;
8909;SDS011;4490;49.072;8.804;2022-12-07T01:28:47;19.03;;;12.23;;
8909;SDS011;4490;49.072;8.804;2022-12-07T01:31:13;19.93;;;12.43;;
8909;SDS011;4490;49.072;8.804;2022-12-07T01:33:41;17.10;;;11.77;;
8909;SDS011;4490;49.072;8.804;2022-12-07T01:36:13;19.30;;;13.00;;
8909;SDS011;4490;49.072;8.804;2022-12-07T01:38:41;19.63;;;13.33;;
8909;SDS011;4490;49.072;8.804;2022-12-07T01:41:08;20.20;;;13.53;;
8909;SDS011;4490;49.072;8.804;2022-12-07T01:43:34;20.97;;;13.50;;
8909;SDS011;4490;49.072;8.804;2022-12-07T01:46:00;21.03;;;13.77;;
8909;SDS011;4490;49.072;8.804;2022-12-07T01:48:28;20.77;;;13.63;;
8909;SDS011;4490;49.072;8.804;2022-12-07T01:51:00;21.27;;;14.13;;
8909;SDS011;4490;49.072;8.804;2022-12-07T01:53:29;20.90;;;14.13;;
8909;SDS011;4490;49.072;8.804;2022-12-07T01:55:57;18.37;;;13.33;;
8909;SDS011;4490;49.072;8.804;2022-12-07T01:58:23;21.57;;;14.10;;
8909;SDS011;4490;49.072;8.804;2022-12-07T02:00:50;24.67;;;14.77;;
8909;SDS011;4490;49.072;8.804;2022-12-07T02:05:44;20.73;;;13.60;;
8909;SDS011;4490;49.072;8.804;2022-12-07T02:08:11;22.47;;;13.63;;
8909;SDS011;4490;49.072;8.804;2022-12-07T02:10:38;19.63;;;13.60;;
8909;SDS011;4490;49.072;8.804;2022-12-07T02:13:14;19.83;;;13.17;;
8909;SDS011;4490;49.072;8.804;2022-12-07T02:15:59;17.40;;;12.37;;
8909;SDS011;4490;49.072;8.804;2022-12-07T02:27:14;18.00;;;12.70;;
8909;SDS011;4490;49.072;8.804;2022-12-07T02:29:51;19.17;;;12.30;;
8909;SDS011;4490;49.072;8.804;2022-12-07T02:32:43;18.50;;;12.33;;
8909;SDS011;4490;49.072;8.804;2022-12-07T02:38:14;17.97;;;12.63;;
8909;SDS011;4490;49.072;8.804;2022-12-07T02:40:48;20.07;;;12.30;;
8909;SDS011;4490;49.072;8.804;2022-12-07T02:45:55;16.83;;;11.83;;
8909;SDS011;4490;49.072;8.804;2022-12-07T02:48:31;18.23;;;11.83;;
8909;SDS011;4490;49.072;8.804;2022-12-07T02:50:58;15.83;;;11.23;;
8909;SDS011;4490;49.072;8.804;2022-12-07T02:53:31;15.90;;;11.10;;
8909;SDS011;4490;49.072;8.804;2022-12-07T02:56:13;18.90;;;11.83;;
8909;SDS011;4490;49.072;8.804;2022-12-07T03:02:03;16.30;;;11.50;;
8909;SDS011;4490;49.072;8.804;2022-12-07T03:04:42;16.20;;;11.87;;
8909;SDS011;4490;49.072;8.804;2022-12-07T03:15:50;19.23;;;12.60;;
8909;SDS011;4490;49.072;8.804;2022-12-07T03:18:34;21.27;;;12.27;;
8909;SDS011;4490;49.072;8.804;2022-12-07T03:21:05;18.57;;;12.40;;
8909;SDS011;4490;49.072;8.804;2022-12-07T03:23:37;17.23;;;12.13;;
8909;SDS011;4490;49.072;8.804;2022-12-07T03:26:05;18.93;;;12.53;;
8909;SDS011;4490;49.072;8.804;2022-12-07T03:28:36;15.47;;;10.70;;
8909;SDS011;4490;49.072;8.804;2022-12-07T03:31:06;17.93;;;11.87;;
8909;SDS011;4490;49.072;8.804;2022-12-07T03:33:41;17.47;;;11.67;;
8909;SDS011;4490;49.072;8.804;2022-12-07T03:36:23;17.20;;;11.33;;
8909;SDS011;4490;49.072;8.804;2022-12-07T03:39:03;16.77;;;11.87;;
8909;SDS011;4490;49.072;8.804;2022-12-07T03:41:44;17.70;;;11.73;;
8909;SDS011;4490;49.072;8.804;2022-12-07T03:44:10;16.17;;;11.13;;
8909;SDS011;4490;49.072;8.804;2022-12-07T03:49:40;19.07;;;12.10;;
8909;SDS011;4490;49.072;8.804;2022-12-07T03:57:47;16.90;;;11.50;;
8909;SDS011;4490;49.072;8.804;2022-12-07T04:00:16;17.90;;;11.70;;
8909;SDS011;4490;49.072;8.804;2022-12-07T04:02:43;19.07;;;11.33;;
8909;SDS011;4490;49.072;8.804;2022-12-07T04:05:09;19.80;;;12.33;;
8909;SDS011;4490;49.072;8.804;2022-12-07T04:07:35;19.47;;;11.33;;
8909;SDS011;4490;49.072;8.804;2022-12-07T04:10:01;18.57;;;11.70;;
8909;SDS011;4490;49.072;8.804;2022-12-07T04:12:28;16.33;;;11.30;;
8909;SDS011;4490;49.072;8.804;2022-12-07T04:14:53;16.57;;;11.40;;
8909;SDS011;4490;49.072;8.804;2022-12-07T04:17:19;15.67;;;10.93;;
8909;SDS011;4490;49.072;8.804;2022-12-07T04:19:44;20.03;;;11.53;;
8909;SDS011;4490;49.072;8.804;2022-12-07T04:22:10;16.80;;;10.93;;
8909;SDS011;4490;49.072;8.804;2022-12-07T04:24:35;16.70;;;10.80;;
8909;SDS011;4490;49.072;8.804;2022-12-07T04:27:01;16.63;;;10.10;;
8909;SDS011;4490;49.072;8.804;2022-12-07T04:29:27;14.37;;;10.10;;
8909;SDS011;4490;49.072;8.804;2022-12-07T04:31:53;14.70;;;10.13;;
8909;SDS011;4490;49.072;8.804;2022-12-07T04:34:18;19.17;;;11.40;;
8909;SDS011;4490;49.072;8.804;2022-12-07T04:36:45;19.13;;;12.03;;
8909;SDS011;4490;49.072;8.804;2022-12-07T04:39:17;18.40;;;11.67;;
8909;SDS011;4490;49.072;8.804;2022-12-07T04:41:48;16.00;;;11.03;;
8909;SDS011;4490;49.072;8.804;2022-12-07T04:44:14;15.80;;;10.77;;
8909;SDS011;4490;49.072;8.804;2022-12-07T04:46:41;17.57;;;11.30;;
8909;SDS011;4490;49.072;8.804;2022-12-07T04:49:07;21.73;;;11.97;;
8909;SDS011;4490;49.072;8.804;2022-12-07T04:51:33;18.23;;;11.83;;
8909;SDS011;4490;49.072;8.804;2022-12-07T04:53:58;19.17;;;11.40;;
8909;SDS011;4490;49.072;8.804;2022-12-07T04:56:24;20.07;;;13.50;;
8909;SDS011;4490;49.072;8.804;2022-12-07T04:58:51;19.50;;;13.27;;
8909;SDS011;4490;49.072;8.804;2022-12-07T05:01:18;20.93;;;12.77;;
8909;SDS011;4490;49.072;8.804;2022-12-07T05:03:44;19.17;;;13.27;;
8909;SDS011;4490;49.072;8.804;2022-12-07T05:06:10;19.87;;;13.67;;
8909;SDS011;4490;49.072;8.804;2022-12-07T05:08:36;17.83;;;13.03;;
8909;SDS011;4490;49.072;8.804;2022-12-07T05:11:03;19.63;;;13.57;;
8909;SDS011;4490;49.072;8.804;2022-12-07T05:13:30;21.63;;;13.20;;
8909;SDS011;4490;49.072;8.804;2022-12-07T05:15:56;20.43;;;13.30;;
8909;SDS011;4490;49.072;8.804;2022-12-07T05:18:22;19.17;;;13.03;;
8909;SDS011;4490;49.072;8.804;2022-12-07T05:20:48;18.10;;;12.17;;
8909;SDS011;4490;49.072;8.804;2022-12-07T05:23:14;19.23;;;12.73;;
8909;SDS011;4490;49.072;8.804;2022-12-07T05:25:39;19.50;;;12.60;;
8909;SDS011;4490;49.072;8.804;2022-12-07T05:28:05;19.33;;;12.93;;
8909;SDS011;4490;49.072;8.804;2022-12-07T05:30:31;22.30;;;13.30;;
8909;SDS011;4490;49.072;8.804;2022-12-07T05:32:57;17.23;;;13.00;;
8909;SDS011;4490;49.072;8.804;2022-12-07T05:35:23;17.57;;;12.77;;
8909;SDS011;4490;49.072;8.804;2022-12-07T05:37:48;19.90;;;13.03;;
8909;SDS011;4490;49.072;8.804;2022-12-07T05:40:14;20.03;;;12.50;;
8909;SDS011;4490;49.072;8.804;2022-12-07T05:42:40;18.50;;;12.83;;
8909;SDS011;4490;49.072;8.804;2022-12-07T05:45:07;18.37;;;11.97;;
8909;SDS011;4490;49.072;8.804;2022-12-07T05:47:33;18.37;;;11.97;;
8909;SDS011;4490;49.072;8.804;2022-12-07T05:49:59;20.03;;;12.03;;
8909;SDS011;4490;49.072;8.804;2022-12-07T05:52:25;17.10;;;12.20;;
8909;SDS011;4490;49.072;8.804;2022-12-07T05:54:51;17.13;;;12.30;;
8909;SDS011;4490;49.072;8.804;2022-12-07T05:57:17;17.63;;;12.60;;
8909;SDS011;4490;49.072;8.804;2022-12-07T05:59:42;18.47;;;12.60;;
8909;SDS011;4490;49.072;8.804;2022-12-07T06:02:10;16.10;;;11.53;;
8909;SDS011;4490;49.072;8.804;2022-12-07T06:04:39;17.20;;;11.87;;
8909;SDS011;4490;49.072;8.804;2022-12-07T06:07:06;17.40;;;11.10;;
8909;SDS011;4490;49.072;8.804;2022-12-07T06:09:32;16.63;;;11.27;;
8909;SDS011;4490;49.072;8.804;2022-12-07T06:11:59;16.03;;;11.13;;
8909;SDS011;4490;49.072;8.804;2022-12-07T06:15:00;14.50;;;10.30;;
8909;SDS011;4490;49.072;8.804;2022-12-07T06:17:26;15.47;;;10.90;;
8909;SDS011;4490;49.072;8.804;2022-12-07T06:19:51;14.97;;;10.70;;
8909;SDS011;4490;49.072;8.804;2022-12-07T06:22:17;14.00;;;10.60;;
8909;SDS011;4490;49.072;8.804;2022-12-07T06:24:43;16.93;;;10.87;;
8909;SDS011;4490;49.072;8.804;2022-12-07T06:27:09;15.37;;;10.70;;
8909;SDS011;4490;49.072;8.804;2022-12-07T06:29:35;19.37;;;11.40;;
8909;SDS011;4490;49.072;8.804;2022-12-07T06:32:02;16.13;;;11.47;;
8909;SDS011;4490;49.072;8.804;2022-12-07T06:34:28;14.70;;;10.77;;
8909;SDS011;4490;49.072;8.804;2022-12-07T06:36:54;14.83;;;10.97;;
8909;SDS011;4490;49.072;8.804;2022-12-07T06:39:23;15.93;;;11.20;;
8909;SDS011;4490;49.072;8.804;2022-12-07T06:41:50;17.10;;;11.07;;
8909;SDS011;4490;49.072;8.804;2022-12-07T06:44:17;16.20;;;11.00;;
8909;SDS011;4490;49.072;8.804;2022-12-07T06:46:43;16.87;;;11.27;;
8909;SDS011;4490;49.072;8.804;2022-12-07T06:49:09;18.20;;;11.47;;
8909;SDS011;4490;49.072;8.804;2022-12-07T06:51:35;15.23;;;10.67;;
8909;SDS011;4490;49.072;8.804;2022-12-07T06:54:02;16.57;;;10.77;;
8909;SDS011;4490;49.072;8.804;2022-12-07T06:56:28;14.60;;;10.27;;
8909;SDS011;4490;49.072;8.804;2022-12-07T06:58:54;15.50;;;10.57;;
8909;SDS011;4490;49.072;8.804;2022-12-07T07:01:20;15.73;;;10.77;;
8909;SDS011;4490;49.072;8.804;2022-12-07T07:03:46;16.63;;;11.17;;
8909;SDS011;4490;49.072;8.804;2022-12-07T07:06:12;15.30;;;10.20;;
8909;SDS011;4490;49.072;8.804;2022-12-07T07:08:38;13.63;;;10.27;;
8909;SDS011;4490;49.072;8.804;2022-12-07T07:11:04;16.40;;;10.50;;
8909;SDS011;4490;49.072;8.804;2022-12-07T07:13:31;17.10;;;11.73;;
8909;SDS011;4490;49.072;8.804;2022-12-07T07:15:57;15.20;;;11.27;;
8909;SDS011;4490;49.072;8.804;2022-12-07T07:18:22;17.00;;;11.33;;
8909;SDS011;4490;49.072;8.804;2022-12-07T07:20:50;16.93;;;11.60;;
8909;SDS011;4490;49.072;8.804;2022-12-07T07:23:16;14.73;;;10.97;;
8909;SDS011;4490;49.072;8.804;2022-12-07T07:25:42;15.20;;;10.60;;
8909;SDS011;4490;49.072;8.804;2022-12-07T07:28:09;17.10;;;11.20;;
8909;SDS011;4490;49.072;8.804;2022-12-07T07:30:35;13.77;;;10.50;;
8909;SDS011;4490;49.072;8.804;2022-12-07T07:33:01;15.67;;;10.77;;
8909;SDS011;4490;49.072;8.804;2022-12-07T07:35:28;13.93;;;10.10;;
8909;SDS011;4490;49.072;8.804;2022-12-07T07:37:55;14.90;;;10.50;;
8909;SDS011;4490;49.072;8.804;2022-12-07T07:40:21;14.17;;;10.40;;
8909;SDS011;4490;49.072;8.804;2022-12-07T07:42:48;15.47;;;10.97;;
8909;SDS011;4490;49.072;8.804;2022-12-07T07:45:14;15.43;;;11.20;;
8909;SDS011;4490;49.072;8.804;2022-12-07T07:47:40;14.87;;;10.63;;
8909;SDS011;4490;49.072;8.804;2022-12-07T07:50:06;15.93;;;11.13;;
8909;SDS011;4490;49.072;8.804;2022-12-07T07:52:32;15.50;;;10.83;;
8909;SDS011;4490;49.072;8.804;2022-12-07T07:54:57;17.03;;;11.47;;
8909;SDS011;4490;49.072;8.804;2022-12-07T07:57:23;15.77;;;10.63;;
8909;SDS011;4490;49.072;8.804;2022-12-07T07:59:49;12.37;;;9.27;;
8909;SDS011;4490;49.072;8.804;2022-12-07T08:02:15;12.53;;;10.23;;
8909;SDS011;4490;49.072;8.804;2022-12-07T08:04:42;15.67;;;10.23;;
8909;SDS011;4490;49.072;8.804;2022-12-07T08:07:09;13.43;;;9.73;;
8909;SDS011;4490;49.072;8.804;2022-12-07T08:09:34;12.30;;;9.60;;
8909;SDS011;4490;49.072;8.804;2022-12-07T08:12:00;14.00;;;10.10;;
8909;SDS011;4490;49.072;8.804;2022-12-07T08:14:26;13.50;;;9.20;;
8909;SDS011;4490;49.072;8.804;2022-12-07T08:16:53;11.57;;;8.97;;
8909;SDS011;4490;49.072;8.804;2022-12-07T08:19:19;13.20;;;9.20;;
8909;SDS011;4490;49.072;8.804;2022-12-07T08:21:45;13.63;;;8.90;;
8909;SDS011;4490;49.072;8.804;2022-12-07T08:24:10;12.63;;;9.47;;
8909;SDS011;4490;49.072;8.804;2022-12-07T08:26:36;13.33;;;8.63;;
8909;SDS011;4490;49.072;8.804;2022-12-07T08:29:02;13.97;;;8.60;;
8909;SDS011;4490;49.072;8.804;2022-12-07T08:31:28;13.73;;;8.70;;
8909;SDS011;4490;49.072;8.804;2022-12-07T08:33:53;11.50;;;8.10;;
8909;SDS011;4490;49.072;8.804;2022-12-07T08:36:19;12.60;;;8.57;;
8909;SDS011;4490;49.072;8.804;2022-12-07T08:38:46;11.73;;;8.10;;
8909;SDS011;4490;49.072;8.804;2022-12-07T08:41:12;11.20;;;8.40;;
8909;SDS011;4490;49.072;8.804;2022-12-07T08:43:38;11.80;;;8.23;;
8909;SDS011;4490;49.072;8.804;2022-12-07T08:46:06;9.67;;;7.87;;
8909;SDS011;4490;49.072;8.804;2022-12-07T08:51:20;10.90;;;8.17;;
8909;SDS011;4490;49.072;8.804;2022-12-07T08:53:47;10.87;;;7.80;;
8909;SDS011;4490;49.072;8.804;2022-12-07T08:56:14;10.83;;;8.10;;
8909;SDS011;4490;49.072;8.804;2022-12-07T08:58:40;9.63;;;7.60;;
8909;SDS011;4490;49.072;8.804;2022-12-07T09:01:06;10.40;;;7.23;;
8909;SDS011;4490;49.072;8.804;2022-12-07T09:03:31;12.07;;;7.70;;
8909;SDS011;4490;49.072;8.804;2022-12-07T09:05:57;10.00;;;7.07;;
8909;SDS011;4490;49.072;8.804;2022-12-07T09:08:26;11.00;;;7.63;;
8909;SDS011;4490;49.072;8.804;2022-12-07T09:10:56;9.63;;;6.83;;
8909;SDS011;4490;49.072;8.804;2022-12-07T09:13:22;9.83;;;7.20;;
8909;SDS011;4490;49.072;8.804;2022-12-07T09:15:47;10.27;;;7.33;;
8909;SDS011;4490;49.072;8.804;2022-12-07T09:18:13;9.47;;;7.30;;
8909;SDS011;4490;49.072;8.804;2022-12-07T09:20:39;10.73;;;7.73;;
8909;SDS011;4490;49.072;8.804;2022-12-07T09:23:05;10.67;;;7.50;;
8909;SDS011;4490;49.072;8.804;2022-12-07T09:25:31;11.67;;;7.80;;
8909;SDS011;4490;49.072;8.804;2022-12-07T09:27:58;11.03;;;6.87;;
8909;SDS011;4490;49.072;8.804;2022-12-07T09:30:23;9.63;;;7.23;;
8909;SDS011;4490;49.072;8.804;2022-12-07T09:32:49;10.17;;;7.80;;
8909;SDS011;4490;49.072;8.804;2022-12-07T09:35:17;9.27;;;7.30;;
8909;SDS011;4490;49.072;8.804;2022-12-07T09:37:43;10.77;;;7.90;;
8909;SDS011;4490;49.072;8.804;2022-12-07T09:40:08;9.30;;;7.03;;
8909;SDS011;4490;49.072;8.804;2022-12-07T09:42:36;12.70;;;8.40;;
8909;SDS011;4490;49.072;8.804;2022-12-07T09:45:19;9.67;;;7.43;;
8909;SDS011;4490;49.072;8.804;2022-12-07T09:47:57;10.13;;;7.53;;
8909;SDS011;4490;49.072;8.804;2022-12-07T09:50:26;12.40;;;8.00;;
8909;SDS011;4490;49.072;8.804;2022-12-07T09:52:53;12.30;;;8.23;;
8909;SDS011;4490;49.072;8.804;2022-12-07T09:55:30;10.23;;;7.70;;
8909;SDS011;4490;49.072;8.804;2022-12-07T09:57:56;10.57;;;8.20;;
8909;SDS011;4490;49.072;8.804;2022-12-07T10:00:23;11.67;;;8.60;;
8909;SDS011;4490;49.072;8.804;2022-12-07T10:05:16;12.13;;;8.80;;
8909;SDS011;4490;49.072;8.804;2022-12-07T10:07:47;11.00;;;8.60;;
8909;SDS011;4490;49.072;8.804;2022-12-07T10:10:14;10.63;;;8.00;;
8909;SDS011;4490;49.072;8.804;2022-12-07T10:13:02;11.37;;;8.23;;
8909;SDS011;4490;49.072;8.804;2022-12-07T10:18:18;11.50;;;8.47;;
8909;SDS011;4490;49.072;8.804;2022-12-07T10:23:26;11.63;;;8.43;;
8909;SDS011;4490;49.072;8.804;2022-12-07T10:25:52;12.27;;;9.50;;
8909;SDS011;4490;49.072;8.804;2022-12-07T10:28:20;12.13;;;8.70;;
8909;SDS011;4490;49.072;8.804;2022-12-07T10:33:31;12.77;;;9.13;;
8909;SDS011;4490;49.072;8.804;2022-12-07T10:36:00;10.70;;;7.90;;
8909;SDS011;4490;49.072;8.804;2022-12-07T10:38:39;13.27;;;9.47;;
8909;SDS011;4490;49.072;8.804;2022-12-07T10:41:10;14.77;;;9.37;;
8909;SDS011;4490;49.072;8.804;2022-12-07T10:43:36;12.97;;;8.97;;
8909;SDS011;4490;49.072;8.804;2022-12-07T10:48:59;12.40;;;8.73;;
8909;SDS011;4490;49.072;8.804;2022-12-07T10:55:04;14.10;;;9.43;;
8909;SDS011;4490;49.072;8.804;2022-12-07T10:57:45;14.27;;;9.93;;
8909;SDS011;4490;49.072;8.804;2022-12-07T11:00:27;16.77;;;10.63;;
8909;SDS011;4490;49.072;8.804;2022-12-07T11:11:13;17.63;;;11.33;;
8909;SDS011;4490;49.072;8.804;2022-12-07T11:16:32;18.93;;;11.70;;
8909;SDS011;4490;49.072;8.804;2022-12-07T11:19:10;13.40;;;10.17;;
8909;SDS011;4490;49.072;8.804;2022-12-07T11:24:41;14.67;;;9.80;;
8909;SDS011;4490;49.072;8.804;2022-12-07T11:30:14;12.80;;;9.03;;
8909;SDS011;4490;49.072;8.804;2022-12-07T11:38:10;14.77;;;9.57;;
8909;SDS011;4490;49.072;8.804;2022-12-07T11:40:43;20.10;;;11.30;;
8909;SDS011;4490;49.072;8.804;2022-12-07T11:45:47;15.37;;;9.53;;
8909;SDS011;4490;49.072;8.804;2022-12-07T11:51:10;12.90;;;10.00;;
8909;SDS011;4490;49.072;8.804;2022-12-07T11:56:25;13.90;;;9.63;;
8909;SDS011;4490;49.072;8.804;2022-12-07T12:06:42;12.70;;;10.13;;
8909;SDS011;4490;49.072;8.804;2022-12-07T12:09:45;12.37;;;9.40;;
8909;SDS011;4490;49.072;8.804;2022-12-07T12:23:07;14.60;;;9.80;;
8909;SDS011;4490;49.072;8.804;2022-12-07T12:25:40;14.10;;;10.17;;
8909;SDS011;4490;49.072;8.804;2022-12-07T12:28:58;13.07;;;10.10;;
8909;SDS011;4490;49.072;8.804;2022-12-07T12:36:20;13.53;;;9.90;;
8909;SDS011;4490;49.072;8.804;2022-12-07T12:51:48;14.13;;;9.90;;
8909;SDS011;4490;49.072;8.804;2022-12-07T12:54:26;15.00;;;10.13;;
8909;SDS011;4490;49.072;8.804;2022-12-07T13:13:00;14.43;;;10.27;;
8909;SDS011;4490;49.072;8.804;2022-12-07T13:15:36;14.37;;;10.33;;
8909;SDS011;4490;49.072;8.804;2022-12-07T13:20:58;15.00;;;9.87;;
8909;SDS011;4490;49.072;8.804;2022-12-07T13:23:51;14.07;;;10.50;;
8909;SDS011;4490;49.072;8.804;2022-12-07T13:29:17;17.03;;;10.70;;
8909;SDS011;4490;49.072;8.804;2022-12-07T13:31:49;16.47;;;11.23;;
8909;SDS011;4490;49.072;8.804;2022-12-07T13:37:08;15.63;;;11.27;;
8909;SDS011;4490;49.072;8.804;2022-12-07T13:39:58;15.83;;;10.67;;
8909;SDS011;4490;49.072;8.804;2022-12-07T13:42:26;14.20;;;10.57;;
8909;SDS011;4490;49.072;8.804;2022-12-07T13:44:53;18.47;;;11.57;;
8909;SDS011;4490;49.072;8.804;2022-12-07T13:47:23;18.57;;;10.87;;
8909;SDS011;4490;49.072;8.804;2022-12-07T13:49:54;19.27;;;11.43;;
8909;SDS011;4490;49.072;8.804;2022-12-07T13:54:58;16.80;;;11.43;;
8909;SDS011;4490;49.072;8.804;2022-12-07T13:57:26;17.50;;;11.80;;
8909;SDS011;4490;49.072;8.804;2022-12-07T13:59:54;23.27;;;12.50;;
8909;SDS011;4490;49.072;8.804;2022-12-07T14:02:20;15.67;;;11.33;;
8909;SDS011;4490;49.072;8.804;2022-12-07T14:04:47;15.80;;;11.37;;
8909;SDS011;4490;49.072;8.804;2022-12-07T14:07:24;17.50;;;12.07;;
8909;SDS011;4490;49.072;8.804;2022-12-07T14:09:59;19.13;;;12.30;;
8909;SDS011;4490;49.072;8.804;2022-12-07T14:12:26;16.10;;;12.33;;
8909;SDS011;4490;49.072;8.804;2022-12-07T14:14:53;17.93;;;11.47;;
8909;SDS011;4490;49.072;8.804;2022-12-07T14:17:24;17.93;;;12.43;;
8909;SDS011;4490;49.072;8.804;2022-12-07T14:19:52;19.50;;;12.43;;
8909;SDS011;4490;49.072;8.804;2022-12-07T14:22:24;18.20;;;12.97;;
8909;SDS011;4490;49.072;8.804;2022-12-07T14:24:50;16.73;;;11.33;;
8909;SDS011;4490;49.072;8.804;2022-12-07T14:27:19;18.17;;;12.27;;
8909;SDS011;4490;49.072;8.804;2022-12-07T14:29:47;19.10;;;13.50;;
8909;SDS011;4490;49.072;8.804;2022-12-07T14:34:56;16.67;;;12.13;;
8909;SDS011;4490;49.072;8.804;2022-12-07T14:37:23;19.07;;;11.77;;
8909;SDS011;4490;49.072;8.804;2022-12-07T14:39:49;19.87;;;13.00;;
8909;SDS011;4490;49.072;8.804;2022-12-07T14:42:15;19.40;;;13.27;;
8909;SDS011;4490;49.072;8.804;2022-12-07T14:44:41;19.37;;;13.73;;
8909;SDS011;4490;49.072;8.804;2022-12-07T14:47:10;19.07;;;12.73;;
8909;SDS011;4490;49.072;8.804;2022-12-07T14:49:35;18.53;;;13.03;;
8909;SDS011;4490;49.072;8.804;2022-12-07T14:52:01;18.63;;;12.93;;
8909;SDS011;4490;49.072;8.804;2022-12-07T14:54:27;18.67;;;13.23;;
8909;SDS011;4490;49.072;8.804;2022-12-07T14:56:55;19.43;;;12.27;;
8909;SDS011;4490;49.072;8.804;2022-12-07T14:59:21;17.53;;;12.37;;
8909;SDS011;4490;49.072;8.804;2022-12-07T15:01:47;18.13;;;12.73;;
8909;SDS011;4490;49.072;8.804;2022-12-07T15:04:12;18.63;;;13.07;;
8909;SDS011;4490;49.072;8.804;2022-12-07T15:06:38;19.10;;;12.53;;
8909;SDS011;4490;49.072;8.804;2022-12-07T15:09:04;20.80;;;12.97;;
8909;SDS011;4490;49.072;8.804;2022-12-07T15:11:30;18.17;;;12.30;;
8909;SDS011;4490;49.072;8.804;2022-12-07T15:13:56;19.57;;;12.93;;
8909;SDS011;4490;49.072;8.804;2022-12-07T15:16:33;18.90;;;12.97;;
8909;SDS011;4490;49.072;8.804;2022-12-07T15:19:00;21.27;;;13.27;;
8909;SDS011;4490;49.072;8.804;2022-12-07T15:21:26;18.47;;;12.70;;
8909;SDS011;4490;49.072;8.804;2022-12-07T15:23:52;20.83;;;13.57;;
8909;SDS011;4490;49.072;8.804;2022-12-07T15:26:18;16.73;;;12.17;;
8909;SDS011;4490;49.072;8.804;2022-12-07T15:28:44;18.13;;;12.90;;
8909;SDS011;4490;49.072;8.804;2022-12-07T15:31:13;19.00;;;13.57;;
8909;SDS011;4490;49.072;8.804;2022-12-07T15:33:39;21.47;;;13.67;;
8909;SDS011;4490;49.072;8.804;2022-12-07T15:36:05;19.23;;;12.67;;
8909;SDS011;4490;49.072;8.804;2022-12-07T15:38:31;18.77;;;13.70;;
8909;SDS011;4490;49.072;8.804;2022-12-07T15:40:57;21.93;;;15.00;;
8909;SDS011;4490;49.072;8.804;2022-12-07T15:43:23;21.33;;;14.13;;
8909;SDS011;4490;49.072;8.804;2022-12-07T15:46:07;21.77;;;14.27;;
8909;SDS011;4490;49.072;8.804;2022-12-07T15:48:33;21.50;;;15.27;;
8909;SDS011;4490;49.072;8.804;2022-12-07T15:51:04;20.73;;;14.60;;
8909;SDS011;4490;49.072;8.804;2022-12-07T15:53:32;22.10;;;14.60;;
8909;SDS011;4490;49.072;8.804;2022-12-07T15:55:59;25.03;;;16.67;;
8909;SDS011;4490;49.072;8.804;2022-12-07T15:58:24;21.30;;;14.90;;
8909;SDS011;4490;49.072;8.804;2022-12-07T16:00:50;21.30;;;14.80;;
8909;SDS011;4490;49.072;8.804;2022-12-07T16:03:16;20.83;;;14.40;;
8909;SDS011;4490;49.072;8.804;2022-12-07T16:05:41;23.50;;;14.50;;
8909;SDS011;4490;49.072;8.804;2022-12-07T16:08:13;20.67;;;14.33;;
8909;SDS011;4490;49.072;8.804;2022-12-07T16:10:39;22.03;;;15.03;;
8909;SDS011;4490;49.072;8.804;2022-12-07T16:13:08;22.17;;;15.50;;
8909;SDS011;4490;49.072;8.804;2022-12-07T16:15:37;22.00;;;15.57;;
8909;SDS011;4490;49.072;8.804;2022-12-07T16:18:03;25.20;;;15.30;;
8909;SDS011;4490;49.072;8.804;2022-12-07T16:20:29;21.97;;;15.33;;
8909;SDS011;4490;49.072;8.804;2022-12-07T16:22:55;24.03;;;16.37;;
8909;SDS011;4490;49.072;8.804;2022-12-07T16:25:20;22.93;;;16.20;;
8909;SDS011;4490;49.072;8.804;2022-12-07T16:27:46;26.70;;;18.43;;
8909;SDS011;4490;49.072;8.804;2022-12-07T16:30:12;26.40;;;17.47;;
8909;SDS011;4490;49.072;8.804;2022-12-07T16:32:38;24.67;;;17.43;;
8909;SDS011;4490;49.072;8.804;2022-12-07T16:35:04;28.93;;;21.83;;
8909;SDS011;4490;49.072;8.804;2022-12-07T16:37:30;27.53;;;20.47;;
8909;SDS011;4490;49.072;8.804;2022-12-07T16:39:55;22.87;;;16.43;;
8909;SDS011;4490;49.072;8.804;2022-12-07T16:42:21;26.20;;;17.27;;
8909;SDS011;4490;49.072;8.804;2022-12-07T16:44:47;28.47;;;18.50;;
8909;SDS011;4490;49.072;8.804;2022-12-07T16:47:12;22.83;;;15.87;;
8909;SDS011;4490;49.072;8.804;2022-12-07T16:49:38;20.80;;;15.70;;
8909;SDS011;4490;49.072;8.804;2022-12-07T16:52:04;23.53;;;16.60;;
8909;SDS011;4490;49.072;8.804;2022-12-07T16:54:29;24.37;;;17.87;;
8909;SDS011;4490;49.072;8.804;2022-12-07T16:56:58;24.50;;;16.03;;
8909;SDS011;4490;49.072;8.804;2022-12-07T16:59:23;23.47;;;15.43;;
8909;SDS011;4490;49.072;8.804;2022-12-07T17:01:49;27.47;;;20.13;;
8909;SDS011;4490;49.072;8.804;2022-12-07T17:04:14;24.50;;;16.13;;
8909;SDS011;4490;49.072;8.804;2022-12-07T17:06:40;22.63;;;15.50;;
8909;SDS011;4490;49.072;8.804;2022-12-07T17:09:06;20.90;;;13.90;;
8909;SDS011;4490;49.072;8.804;2022-12-07T17:11:34;20.17;;;15.00;;
8909;SDS011;4490;49.072;8.804;2022-12-07T17:14:01;20.77;;;14.40;;
8909;SDS011;4490;49.072;8.804;2022-12-07T17:16:45;23.97;;;15.47;;
8909;SDS011;4490;49.072;8.804;2022-12-07T17:19:12;22.97;;;15.97;;
8909;SDS011;4490;49.072;8.804;2022-12-07T17:21:39;24.97;;;16.53;;
8909;SDS011;4490;49.072;8.804;2022-12-07T17:24:06;23.47;;;16.17;;
8909;SDS011;4490;49.072;8.804;2022-12-07T17:26:34;26.17;;;16.40;;
8909;SDS011;4490;49.072;8.804;2022-12-07T17:29:00;26.97;;;19.50;;
8909;SDS011;4490;49.072;8.804;2022-12-07T17:31:25;33.00;;;23.10;;